createdAt,value
2019-03-19T00:04:27.863Z,92.30
2019-03-19T00:09:33.514Z,92.30
2019-03-19T00:14:38.785Z,92.20
2019-03-19T00:19:44.125Z,92.30
2019-03-19T00:24:49.506Z,92.30
2019-03-19T00:29:54.875Z,92.40
2019-03-19T00:35:00.825Z,92.30
2019-03-19T00:40:09.256Z,92.30
2019-03-19T00:45:15.241Z,92.50
2019-03-19T00:50:20.993Z,92.70
2019-03-19T00:55:45.603Z,93.10
2019-03-19T01:00:51.156Z,93.00
2019-03-19T01:05:56.767Z,92.80
2019-03-19T01:11:01.707Z,92.80
2019-03-19T01:16:07.078Z,93.10
2019-03-19T01:21:32.053Z,93.40
2019-03-19T01:26:38.024Z,93.80
2019-03-19T01:31:43.631Z,94.30
2019-03-19T01:36:48.957Z,94.70
2019-03-19T01:42:04.156Z,95.00
2019-03-19T01:47:28.756Z,95.20
2019-03-19T01:52:46.018Z,95.40
2019-03-19T01:57:51.576Z,95.50
2019-03-19T02:02:56.929Z,95.60
2019-03-19T02:08:22.353Z,95.80
2019-03-19T02:13:29.145Z,95.90
2019-03-19T02:18:35.931Z,95.70
2019-03-19T02:23:42.726Z,95.70
2019-03-19T02:28:49.548Z,96.30
2019-03-19T02:33:55.301Z,96.50
2019-03-19T02:39:01.461Z,96.60
2019-03-19T02:44:08.268Z,96.50
2019-03-19T02:49:14.046Z,96.50
2019-03-19T02:54:20.828Z,96.30
2019-03-19T02:59:26.807Z,96.00
2019-03-19T03:04:33.628Z,95.70
2019-03-19T03:09:39.195Z,95.70
2019-03-19T03:14:46.258Z,95.30
2019-03-19T03:19:51.297Z,95.00
2019-03-19T03:24:56.545Z,94.50
2019-03-19T03:30:02.386Z,94.50
2019-03-19T03:35:09.419Z,94.30
2019-03-19T03:40:16.690Z,94.10
2019-03-19T03:45:21.988Z,94.10
2019-03-19T03:50:27.356Z,94.20
2019-03-19T03:55:32.516Z,94.00
2019-03-19T04:00:37.651Z,94.00
2019-03-19T04:05:43.008Z,94.10
2019-03-19T04:10:48.636Z,94.30
2019-03-19T04:15:53.961Z,94.20
2019-03-19T04:20:59.510Z,94.00
2019-03-19T04:26:04.600Z,94.00
2019-03-19T04:31:09.812Z,94.30
2019-03-19T04:36:15.689Z,93.90
2019-03-19T04:41:20.945Z,94.30
2019-03-19T04:46:26.302Z,94.30
2019-03-19T04:51:31.624Z,94.30
2019-03-19T04:56:37.053Z,94.30
2019-03-19T05:01:42.699Z,94.50
2019-03-19T05:06:48.165Z,94.90
2019-03-19T05:11:53.334Z,94.50
2019-03-19T05:16:58.687Z,94.20
2019-03-19T05:22:04.054Z,94.20
2019-03-19T05:27:09.228Z,94.40
2019-03-19T05:32:14.558Z,94.60
2019-03-19T05:37:19.917Z,94.90
2019-03-19T05:42:25.157Z,94.90
2019-03-19T05:47:37.310Z,95.00
2019-03-19T05:52:37.531Z,95.20
2019-03-19T05:57:49.454Z,95.30
2019-03-19T06:02:49.568Z,95.30
2019-03-19T06:07:54.725Z,95.40
2019-03-19T06:12:59.968Z,94.80
2019-03-19T06:18:05.455Z,94.60
2019-03-19T06:23:11.742Z,94.10
2019-03-19T06:28:17.303Z,93.60
2019-03-19T06:33:22.955Z,93.80
2019-03-19T06:38:28.214Z,93.20
2019-03-19T06:43:33.704Z,92.80
2019-03-19T06:48:39.053Z,92.10
2019-03-19T06:53:44.295Z,92.30
2019-03-19T06:58:49.559Z,91.80
2019-03-19T07:03:54.676Z,92.30
2019-03-19T07:08:59.970Z,91.60
2019-03-19T07:14:05.234Z,90.70
2019-03-19T07:19:10.615Z,90.90
2019-03-19T07:24:15.924Z,90.20
2019-03-19T07:29:21.303Z,89.00
2019-03-19T07:34:26.674Z,89.40
2019-03-19T07:39:32.269Z,88.40
2019-03-19T07:44:38.049Z,86.80
2019-03-19T07:49:44.504Z,86.00
2019-03-19T07:54:50.133Z,83.50
2019-03-19T07:59:55.310Z,83.20
2019-03-19T08:05:00.846Z,82.50
2019-03-19T08:10:11.793Z,85.80
2019-03-19T08:15:18.513Z,81.80
2019-03-19T08:20:42.900Z,80.70
2019-03-19T08:25:48.120Z,81.70
2019-03-19T08:30:53.292Z,79.10
2019-03-19T08:36:08.746Z,77.10
2019-03-19T08:41:05.269Z,75.40
2019-03-19T08:46:10.915Z,73.80
2019-03-19T08:51:16.221Z,74.40
2019-03-19T08:56:21.471Z,73.40
2019-03-19T09:01:26.755Z,76.10
2019-03-19T09:06:31.981Z,73.00
2019-03-19T09:11:37.566Z,70.10
2019-03-19T09:16:42.726Z,71.60
2019-03-19T09:21:47.858Z,70.00
2019-03-19T09:26:53.240Z,68.50
2019-03-19T09:31:58.390Z,70.50
2019-03-19T09:37:03.782Z,68.00
2019-03-19T09:42:09.115Z,66.10
2019-03-19T09:47:14.329Z,65.10
2019-03-19T09:52:19.601Z,63.80
2019-03-19T09:57:25.101Z,65.30
2019-03-19T10:02:51.059Z,63.90
2019-03-19T10:07:57.011Z,64.20
2019-03-19T10:13:02.164Z,61.60
2019-03-19T10:18:07.550Z,60.20
2019-03-19T10:23:12.816Z,63.40
2019-03-19T10:28:18.208Z,59.70
2019-03-19T10:33:23.609Z,58.90
2019-03-19T10:38:28.743Z,57.30
2019-03-19T10:43:34.558Z,54.40
2019-03-19T10:48:39.897Z,54.20
2019-03-19T10:53:45.459Z,55.50
2019-03-19T10:58:50.791Z,52.20
2019-03-19T11:03:55.949Z,50.10
2019-03-19T11:09:01.163Z,50.40
2019-03-19T11:14:06.493Z,48.70
2019-03-19T11:19:12.007Z,49.00
2019-03-19T11:24:17.602Z,51.60
2019-03-19T11:29:22.975Z,50.30
2019-03-19T11:34:28.300Z,47.40
2019-03-19T11:39:33.255Z,47.70
2019-03-19T11:44:42.886Z,46.50
2019-03-19T11:49:48.466Z,43.50
2019-03-19T11:54:53.931Z,45.00
2019-03-19T12:00:10.530Z,46.10
2019-03-19T12:05:08.745Z,47.90
2019-03-19T12:10:14.491Z,47.90
2019-03-19T12:15:19.847Z,49.10
2019-03-19T12:20:25.001Z,47.70
2019-03-19T12:25:31.437Z,49.50
2019-03-19T12:30:36.690Z,48.10
2019-03-19T12:35:41.536Z,51.30
2019-03-19T12:40:46.855Z,48.30
2019-03-19T12:45:51.784Z,50.20
2019-03-19T12:50:56.836Z,52.80
2019-03-19T12:56:02.009Z,51.30
2019-03-19T13:01:06.947Z,50.80
2019-03-19T13:06:12.408Z,51.70
2019-03-19T13:11:17.574Z,54.90
2019-03-19T13:16:22.716Z,57.50
2019-03-19T13:21:28.398Z,60.60
2019-03-19T13:26:33.428Z,62.70
2019-03-19T13:31:39.051Z,59.00
2019-03-19T13:36:44.208Z,64.60
2019-03-19T13:41:49.649Z,61.80
2019-03-19T13:46:54.845Z,65.10
2019-03-19T13:52:00.679Z,62.70
2019-03-19T13:57:06.130Z,71.40
2019-03-19T14:02:11.952Z,72.30
2019-03-19T14:07:17.261Z,71.60
2019-03-19T14:12:22.871Z,72.10
2019-03-19T14:17:28.251Z,68.20
2019-03-19T14:22:33.973Z,68.60
2019-03-19T14:27:39.559Z,66.30
2019-03-19T14:32:44.987Z,66.90
2019-03-19T14:37:50.322Z,67.10
2019-03-19T14:42:58.341Z,62.50
2019-03-19T14:48:02.922Z,61.90
2019-03-19T14:53:08.480Z,58.70
2019-03-19T14:58:13.437Z,59.70
2019-03-19T15:03:19.000Z,60.00
2019-03-19T15:08:25.555Z,59.40
2019-03-19T15:13:31.287Z,61.40
2019-03-19T15:18:49.926Z,62.80
2019-03-19T15:23:57.767Z,62.40
2019-03-19T15:29:03.217Z,64.30
2019-03-19T15:34:09.886Z,65.00
2019-03-19T15:39:15.589Z,63.50
2019-03-19T15:44:21.018Z,64.60
2019-03-19T15:49:26.244Z,64.60
2019-03-19T15:54:31.530Z,65.50
2019-03-19T15:59:37.385Z,65.60
2019-03-19T16:04:42.437Z,66.60
2019-03-19T16:09:47.881Z,67.50
2019-03-19T16:14:53.146Z,68.10
2019-03-19T16:19:59.028Z,67.60
2019-03-19T16:25:06.007Z,67.90
2019-03-19T16:30:18.748Z,66.70
2019-03-19T16:35:24.121Z,66.60
2019-03-19T16:40:29.250Z,67.40
2019-03-19T16:45:34.902Z,68.70
2019-03-19T16:50:40.191Z,70.60
2019-03-19T16:55:45.365Z,71.20
2019-03-19T17:00:50.664Z,72.40
2019-03-19T17:05:55.674Z,73.30
2019-03-19T17:11:01.106Z,73.60
2019-03-19T17:16:06.471Z,75.00
2019-03-19T17:21:11.705Z,76.10
2019-03-19T17:26:17.042Z,77.10
2019-03-19T17:31:22.383Z,79.10
2019-03-19T17:36:27.964Z,79.60
2019-03-19T17:41:34.455Z,79.60
2019-03-19T17:46:39.943Z,80.30
2019-03-19T17:51:45.296Z,82.10
2019-03-19T17:56:50.904Z,83.10
2019-03-19T18:01:56.410Z,84.00
2019-03-19T18:07:02.126Z,84.80
2019-03-19T18:12:07.579Z,84.80
2019-03-19T18:17:13.331Z,85.60
2019-03-19T18:22:18.937Z,86.00
2019-03-19T18:27:24.415Z,87.10
2019-03-19T18:32:34.941Z,88.30
2019-03-19T18:37:37.316Z,89.50
2019-03-19T18:42:42.651Z,89.80
2019-03-19T18:47:48.084Z,90.00
2019-03-19T18:52:53.720Z,90.60
2019-03-19T18:57:59.291Z,90.90
2019-03-19T19:03:05.038Z,91.30
2019-03-19T19:08:29.594Z,91.70
2019-03-19T19:13:34.849Z,92.00
2019-03-19T19:18:40.799Z,92.10
2019-03-19T19:23:46.145Z,92.40
2019-03-19T19:28:51.737Z,92.50
2019-03-19T19:33:57.969Z,93.00
2019-03-19T19:39:04.500Z,93.40
2019-03-19T19:44:10.375Z,93.50
2019-03-19T19:49:17.054Z,93.60
2019-03-19T19:54:23.008Z,93.80
2019-03-19T19:59:28.384Z,94.00
2019-03-19T20:05:02.554Z,94.00
2019-03-19T20:10:00.351Z,94.30
2019-03-19T20:15:08.990Z,94.50
2019-03-19T20:20:16.639Z,94.80
2019-03-19T20:25:21.873Z,94.90
2019-03-19T20:30:28.629Z,94.90
2019-03-19T20:35:33.784Z,94.70
2019-03-19T20:40:39.041Z,94.90
2019-03-19T20:45:44.681Z,95.10
2019-03-19T20:50:52.642Z,95.40
2019-03-19T20:55:58.131Z,95.70
2019-03-19T21:01:03.918Z,95.80
2019-03-19T21:06:09.835Z,95.70
2019-03-19T21:11:16.276Z,95.90
2019-03-19T21:16:41.301Z,96.20
2019-03-19T21:21:47.356Z,96.50
2019-03-19T21:27:12.562Z,96.90
2019-03-19T21:32:18.548Z,96.80
2019-03-19T21:37:24.595Z,97.00
2019-03-19T21:42:30.561Z,97.20
2019-03-19T21:47:36.378Z,97.10
2019-03-19T21:53:01.541Z,97.00
2019-03-19T21:58:07.404Z,97.20
2019-03-19T22:03:13.315Z,98.00
2019-03-19T22:08:18.744Z,98.10
2019-03-19T22:13:24.338Z,98.20
2019-03-19T22:18:30.309Z,98.20
2019-03-19T22:23:35.624Z,98.40
2019-03-19T22:28:41.016Z,98.40
2019-03-19T22:33:47.009Z,98.60
2019-03-19T22:38:52.644Z,99.00
2019-03-19T22:43:58.154Z,99.40
2019-03-19T22:49:03.367Z,99.50
2019-03-19T22:54:09.037Z,99.60
2019-03-19T22:59:33.887Z,99.90
2019-03-19T23:04:39.393Z,99.90
2019-03-19T23:09:45.168Z,99.90
2019-03-19T23:14:50.598Z,99.90
2019-03-19T23:19:57.451Z,99.90
2019-03-19T23:25:03.157Z,99.90
2019-03-19T23:30:16.750Z,99.90
2019-03-19T23:35:22.076Z,99.90
2019-03-19T23:40:27.806Z,99.90
2019-03-19T23:45:33.334Z,99.90
2019-03-19T23:50:39.108Z,99.90
2019-03-19T23:55:44.675Z,99.90
